sensor_id;sensor_type;location;lat;lon;timestamp;pressure;altitude;pressure_sealevel;temperature;humidity
23281;BME280;11809;56.390;-3.266;2022-11-20T00:01:20;100116.94;;;14.99;61.57
23281;BME280;11809;56.390;-3.266;2022-11-20T00:03:51;100114.41;;;14.97;61.92
23281;BME280;11809;56.390;-3.266;2022-11-20T00:06:18;100109.53;;;14.91;61.62
23281;BME280;11809;56.390;-3.266;2022-11-20T00:08:46;100099.88;;;14.90;61.61
23281;BME280;11809;56.390;-3.266;2022-11-20T00:11:15;100087.63;;;14.89;61.58
23281;BME280;11809;56.390;-3.266;2022-11-20T00:13:44;100087.72;;;14.88;61.61
23281;BME280;11809;56.390;-3.266;2022-11-20T00:16:16;100086.13;;;14.85;61.84
23281;BME280;11809;56.390;-3.266;2022-11-20T00:18:44;100078.19;;;14.85;61.75
23281;BME280;11809;56.390;-3.266;2022-11-20T00:21:32;100071.22;;;14.84;61.89
23281;BME280;11809;56.390;-3.266;2022-11-20T00:23:59;100074.91;;;14.82;62.05
23281;BME280;11809;56.390;-3.266;2022-11-20T00:26:27;100071.50;;;14.80;61.97
23281;BME280;11809;56.390;-3.266;2022-11-20T00:28:57;100070.66;;;14.79;62.24
23281;BME280;11809;56.390;-3.266;2022-11-20T00:31:25;100062.81;;;14.78;62.26
23281;BME280;11809;56.390;-3.266;2022-11-20T00:33:52;100056.34;;;14.69;62.39
23281;BME280;11809;56.390;-3.266;2022-11-20T00:36:22;100053.69;;;14.69;62.24
23281;BME280;11809;56.390;-3.266;2022-11-20T00:38:53;100051.91;;;14.70;62.16
23281;BME280;11809;56.390;-3.266;2022-11-20T00:41:21;100042.38;;;14.67;62.33
23281;BME280;11809;56.390;-3.266;2022-11-20T00:43:49;100049.47;;;14.67;62.27
23281;BME280;11809;56.390;-3.266;2022-11-20T00:46:18;100052.94;;;14.67;62.53
23281;BME280;11809;56.390;-3.266;2022-11-20T00:48:46;100048.19;;;14.60;62.03
23281;BME280;11809;56.390;-3.266;2022-11-20T00:51:15;100044.47;;;14.62;62.32
23281;BME280;11809;56.390;-3.266;2022-11-20T00:53:42;100049.13;;;14.58;62.26
23281;BME280;11809;56.390;-3.266;2022-11-20T00:56:11;100054.53;;;14.57;62.59
23281;BME280;11809;56.390;-3.266;2022-11-20T00:58:41;100041.19;;;14.58;62.65
23281;BME280;11809;56.390;-3.266;2022-11-20T01:03:42;100023.00;;;14.54;62.54
23281;BME280;11809;56.390;-3.266;2022-11-20T01:06:15;100027.41;;;14.53;62.63
23281;BME280;11809;56.390;-3.266;2022-11-20T01:08:44;100024.97;;;14.50;62.58
23281;BME280;11809;56.390;-3.266;2022-11-20T01:11:14;100020.66;;;14.49;62.60
23281;BME280;11809;56.390;-3.266;2022-11-20T01:13:42;100022.44;;;14.49;62.45
23281;BME280;11809;56.390;-3.266;2022-11-20T01:16:18;100020.75;;;14.48;62.77
23281;BME280;11809;56.390;-3.266;2022-11-20T01:18:47;100027.00;;;14.47;62.71
23281;BME280;11809;56.390;-3.266;2022-11-20T01:21:18;100015.56;;;14.46;62.80
23281;BME280;11809;56.390;-3.266;2022-11-20T01:23:46;100020.97;;;14.45;62.99
23281;BME280;11809;56.390;-3.266;2022-11-20T01:26:16;100012.47;;;14.40;62.78
23281;BME280;11809;56.390;-3.266;2022-11-20T01:28:44;100017.34;;;14.46;62.82
23281;BME280;11809;56.390;-3.266;2022-11-20T01:31:17;100014.16;;;14.41;62.85
23281;BME280;11809;56.390;-3.266;2022-11-20T01:33:45;100016.81;;;14.41;63.07
23281;BME280;11809;56.390;-3.266;2022-11-20T01:36:13;100008.88;;;14.41;62.96
23281;BME280;11809;56.390;-3.266;2022-11-20T01:38:41;100015.97;;;14.40;62.87
23281;BME280;11809;56.390;-3.266;2022-11-20T01:41:10;100015.22;;;14.38;63.01
23281;BME280;11809;56.390;-3.266;2022-11-20T01:43:37;100004.75;;;14.37;63.09
23281;BME280;11809;56.390;-3.266;2022-11-20T01:46:25;100006.44;;;14.38;63.09
23281;BME280;11809;56.390;-3.266;2022-11-20T01:48:53;100000.41;;;14.36;62.88
23281;BME280;11809;56.390;-3.266;2022-11-20T01:54:01;99994.47;;;14.32;63.26
23281;BME280;11809;56.390;-3.266;2022-11-20T01:56:31;99995.31;;;14.33;63.43
23281;BME280;11809;56.390;-3.266;2022-11-20T01:59:04;99984.88;;;14.31;63.26
23281;BME280;11809;56.390;-3.266;2022-11-20T02:01:33;99985.78;;;14.30;63.33
23281;BME280;11809;56.390;-3.266;2022-11-20T02:04:01;99973.50;;;14.29;63.32
23281;BME280;11809;56.390;-3.266;2022-11-20T02:06:32;99968.13;;;14.31;63.34
23281;BME280;11809;56.390;-3.266;2022-11-20T02:09:01;99955.97;;;14.28;63.29
23281;BME280;11809;56.390;-3.266;2022-11-20T02:11:30;99956.16;;;14.25;63.46
23281;BME280;11809;56.390;-3.266;2022-11-20T02:13:58;99950.00;;;14.25;63.32
23281;BME280;11809;56.390;-3.266;2022-11-20T02:16:29;99952.66;;;14.25;63.49
23281;BME280;11809;56.390;-3.266;2022-11-20T02:18:59;99957.00;;;14.26;63.36
23281;BME280;11809;56.390;-3.266;2022-11-20T02:24:08;99950.94;;;14.24;63.53
23281;BME280;11809;56.390;-3.266;2022-11-20T02:26:44;99945.66;;;14.24;63.60
23281;BME280;11809;56.390;-3.266;2022-11-20T02:29:14;99943.44;;;14.18;63.79
23281;BME280;11809;56.390;-3.266;2022-11-20T02:31:42;99938.25;;;14.16;63.73
23281;BME280;11809;56.390;-3.266;2022-11-20T02:34:10;99944.06;;;14.21;63.31
23281;BME280;11809;56.390;-3.266;2022-11-20T02:36:39;99940.63;;;14.21;63.57
23281;BME280;11809;56.390;-3.266;2022-11-20T02:39:07;99939.84;;;14.19;63.47
23281;BME280;11809;56.390;-3.266;2022-11-20T02:41:36;99937.31;;;14.17;63.82
23281;BME280;11809;56.390;-3.266;2022-11-20T02:44:04;99920.91;;;14.12;63.90
23281;BME280;11809;56.390;-3.266;2022-11-20T02:46:32;99932.97;;;14.16;63.92
23281;BME280;11809;56.390;-3.266;2022-11-20T02:49:02;99923.38;;;14.15;64.06
23281;BME280;11809;56.390;-3.266;2022-11-20T02:51:29;99931.19;;;14.17;64.03
23281;BME280;11809;56.390;-3.266;2022-11-20T02:53:57;99925.88;;;14.17;64.11
23281;BME280;11809;56.390;-3.266;2022-11-20T02:56:24;99926.00;;;14.15;63.98
23281;BME280;11809;56.390;-3.266;2022-11-20T02:58:51;99915.72;;;14.11;63.77
23281;BME280;11809;56.390;-3.266;2022-11-20T03:01:18;99916.38;;;14.14;64.03
23281;BME280;11809;56.390;-3.266;2022-11-20T03:03:45;99922.59;;;14.13;63.88
23281;BME280;11809;56.390;-3.266;2022-11-20T03:06:12;99911.41;;;14.10;64.24
23281;BME280;11809;56.390;-3.266;2022-11-20T03:08:39;99918.28;;;14.12;63.96
23281;BME280;11809;56.390;-3.266;2022-11-20T03:11:07;99909.38;;;14.13;64.18
23281;BME280;11809;56.390;-3.266;2022-11-20T03:13:34;99915.53;;;14.14;64.00
23281;BME280;11809;56.390;-3.266;2022-11-20T03:16:20;99904.41;;;14.09;64.34
23281;BME280;11809;56.390;-3.266;2022-11-20T03:18:47;99893.97;;;14.07;64.18
23281;BME280;11809;56.390;-3.266;2022-11-20T03:21:15;99899.78;;;14.12;64.23
23281;BME280;11809;56.390;-3.266;2022-11-20T03:23:43;99895.34;;;14.13;64.41
23281;BME280;11809;56.390;-3.266;2022-11-20T03:26:15;99892.72;;;14.13;64.34
23281;BME280;11809;56.390;-3.266;2022-11-20T03:28:47;99889.09;;;14.14;64.06
23281;BME280;11809;56.390;-3.266;2022-11-20T03:31:16;99876.19;;;14.09;63.92
23281;BME280;11809;56.390;-3.266;2022-11-20T03:33:43;99882.53;;;14.07;63.73
23281;BME280;11809;56.390;-3.266;2022-11-20T03:36:12;99880.84;;;14.06;63.72
23281;BME280;11809;56.390;-3.266;2022-11-20T03:38:40;99874.81;;;14.04;63.77
23281;BME280;11809;56.390;-3.266;2022-11-20T03:41:10;99879.34;;;14.02;63.96
23281;BME280;11809;56.390;-3.266;2022-11-20T03:43:37;99859.91;;;14.03;63.69
23281;BME280;11809;56.390;-3.266;2022-11-20T03:46:05;99866.16;;;14.02;63.73
23281;BME280;11809;56.390;-3.266;2022-11-20T03:48:33;99851.56;;;13.96;63.80
23281;BME280;11809;56.390;-3.266;2022-11-20T03:51:16;99856.91;;;13.94;63.90
23281;BME280;11809;56.390;-3.266;2022-11-20T03:53:45;99857.38;;;14.01;63.96
23281;BME280;11809;56.390;-3.266;2022-11-20T03:56:14;99861.81;;;14.01;63.79
23281;BME280;11809;56.390;-3.266;2022-11-20T03:58:41;99855.78;;;13.98;63.85
23281;BME280;11809;56.390;-3.266;2022-11-20T04:01:19;99852.94;;;14.02;63.85
23281;BME280;11809;56.390;-3.266;2022-11-20T04:03:46;99851.22;;;14.01;64.04
23281;BME280;11809;56.390;-3.266;2022-11-20T04:08:41;99841.91;;;13.95;63.99
23281;BME280;11809;56.390;-3.266;2022-11-20T04:11:13;99846.81;;;14.01;64.13
23281;BME280;11809;56.390;-3.266;2022-11-20T04:13:41;99848.72;;;13.99;64.06
23281;BME280;11809;56.390;-3.266;2022-11-20T04:16:09;99844.38;;;13.98;63.86
23281;BME280;11809;56.390;-3.266;2022-11-20T04:18:36;99847.84;;;13.98;64.27
23281;BME280;11809;56.390;-3.266;2022-11-20T04:21:04;99836.75;;;13.93;64.16
23281;BME280;11809;56.390;-3.266;2022-11-20T04:23:32;99841.72;;;13.98;64.33
23281;BME280;11809;56.390;-3.266;2022-11-20T04:26:07;99831.47;;;13.93;64.31
23281;BME280;11809;56.390;-3.266;2022-11-20T04:28:34;99838.22;;;13.97;64.36
23281;BME280;11809;56.390;-3.266;2022-11-20T04:31:04;99832.84;;;13.99;64.18
23281;BME280;11809;56.390;-3.266;2022-11-20T04:33:31;99829.47;;;13.97;64.34
23281;BME280;11809;56.390;-3.266;2022-11-20T04:36:07;99831.16;;;13.98;64.20
23281;BME280;11809;56.390;-3.266;2022-11-20T04:38:37;99830.31;;;13.97;64.27
23281;BME280;11809;56.390;-3.266;2022-11-20T04:41:06;99820.72;;;13.96;64.24
23281;BME280;11809;56.390;-3.266;2022-11-20T04:43:34;99819.94;;;13.94;64.48
23281;BME280;11809;56.390;-3.266;2022-11-20T04:46:01;99820.78;;;13.95;64.50
23281;BME280;11809;56.390;-3.266;2022-11-20T04:48:28;99810.22;;;13.95;64.46
23281;BME280;11809;56.390;-3.266;2022-11-20T04:50:56;99811.94;;;13.96;64.21
23281;BME280;11809;56.390;-3.266;2022-11-20T04:53:23;99805.78;;;13.95;64.42
23281;BME280;11809;56.390;-3.266;2022-11-20T04:55:50;99786.78;;;13.90;64.50
23281;BME280;11809;56.390;-3.266;2022-11-20T04:58:17;99798.72;;;13.96;64.31
23281;BME280;11809;56.390;-3.266;2022-11-20T05:00:44;99789.41;;;13.90;64.54
23281;BME280;11809;56.390;-3.266;2022-11-20T05:03:11;99807.59;;;13.95;64.43
23281;BME280;11809;56.390;-3.266;2022-11-20T05:05:37;99797.03;;;13.95;64.26
23281;BME280;11809;56.390;-3.266;2022-11-20T05:08:04;99804.94;;;13.95;64.35
23281;BME280;11809;56.390;-3.266;2022-11-20T05:10:31;99810.34;;;13.93;64.63
23281;BME280;11809;56.390;-3.266;2022-11-20T05:12:58;99798.28;;;13.89;64.58
23281;BME280;11809;56.390;-3.266;2022-11-20T05:15:25;99797.53;;;13.87;64.63
23281;BME280;11809;56.390;-3.266;2022-11-20T05:17:52;99805.06;;;13.93;64.59
23281;BME280;11809;56.390;-3.266;2022-11-20T05:20:20;99809.59;;;13.91;64.49
23281;BME280;11809;56.390;-3.266;2022-11-20T05:22:46;99802.63;;;13.90;64.46
23281;BME280;11809;56.390;-3.266;2022-11-20T05:25:13;99807.69;;;13.93;64.69
23281;BME280;11809;56.390;-3.266;2022-11-20T05:27:40;99789.41;;;13.90;64.31
23281;BME280;11809;56.390;-3.266;2022-11-20T05:30:08;99783.28;;;13.90;64.64
23281;BME280;11809;56.390;-3.266;2022-11-20T05:32:35;99762.34;;;13.87;64.43
23281;BME280;11809;56.390;-3.266;2022-11-20T05:35:02;99771.78;;;13.91;64.70
23281;BME280;11809;56.390;-3.266;2022-11-20T05:37:29;99772.72;;;13.90;64.81
23281;BME280;11809;56.390;-3.266;2022-11-20T05:39:56;99778.00;;;13.90;64.39
23281;BME280;11809;56.390;-3.266;2022-11-20T05:42:22;99769.44;;;13.86;64.66
23281;BME280;11809;56.390;-3.266;2022-11-20T05:45:02;99767.53;;;13.88;64.44
23281;BME280;11809;56.390;-3.266;2022-11-20T05:47:33;99779.78;;;13.89;64.46
23281;BME280;11809;56.390;-3.266;2022-11-20T05:50:01;99780.75;;;13.88;64.53
23281;BME280;11809;56.390;-3.266;2022-11-20T05:52:29;99776.41;;;13.87;64.59
23281;BME280;11809;56.390;-3.266;2022-11-20T05:54:56;99775.56;;;13.87;64.66
23281;BME280;11809;56.390;-3.266;2022-11-20T05:57:23;99775.66;;;13.85;64.52
23281;BME280;11809;56.390;-3.266;2022-11-20T05:59:50;99776.41;;;13.87;64.75
23281;BME280;11809;56.390;-3.266;2022-11-20T06:02:17;99778.31;;;13.85;64.58
23281;BME280;11809;56.390;-3.266;2022-11-20T06:04:44;99760.16;;;13.81;64.78
23281;BME280;11809;56.390;-3.266;2022-11-20T06:07:10;99760.69;;;13.86;64.62
23281;BME280;11809;56.390;-3.266;2022-11-20T06:09:38;99758.03;;;13.86;64.71
23281;BME280;11809;56.390;-3.266;2022-11-20T06:12:05;99753.59;;;13.86;64.62
23281;BME280;11809;56.390;-3.266;2022-11-20T06:14:32;99751.06;;;13.85;64.63
23281;BME280;11809;56.390;-3.266;2022-11-20T06:16:59;99738.59;;;13.87;64.44
23281;BME280;11809;56.390;-3.266;2022-11-20T06:19:26;99744.06;;;13.84;64.71
23281;BME280;11809;56.390;-3.266;2022-11-20T06:21:53;99745.88;;;13.83;64.70
23281;BME280;11809;56.390;-3.266;2022-11-20T06:24:20;99739.63;;;13.84;64.58
23281;BME280;11809;56.390;-3.266;2022-11-20T06:26:47;99745.03;;;13.83;64.74
23281;BME280;11809;56.390;-3.266;2022-11-20T06:29:14;99742.72;;;13.78;64.62
23281;BME280;11809;56.390;-3.266;2022-11-20T06:31:40;99745.13;;;13.81;64.77
23281;BME280;11809;56.390;-3.266;2022-11-20T06:34:09;99759.09;;;13.83;64.80
23281;BME280;11809;56.390;-3.266;2022-11-20T06:36:36;99752.00;;;13.84;64.66
23281;BME280;11809;56.390;-3.266;2022-11-20T06:39:03;99748.41;;;13.85;64.42
23281;BME280;11809;56.390;-3.266;2022-11-20T06:41:29;99760.69;;;13.86;64.61
23281;BME280;11809;56.390;-3.266;2022-11-20T06:43:56;99756.44;;;13.83;64.65
23281;BME280;11809;56.390;-3.266;2022-11-20T06:46:23;99752.84;;;13.84;64.43
23281;BME280;11809;56.390;-3.266;2022-11-20T06:48:50;99747.56;;;13.84;64.38
23281;BME280;11809;56.390;-3.266;2022-11-20T06:51:18;99737.19;;;13.81;64.52
23281;BME280;11809;56.390;-3.266;2022-11-20T06:53:45;99731.72;;;13.84;64.79
23281;BME280;11809;56.390;-3.266;2022-11-20T06:56:12;99730.84;;;13.84;64.69
23281;BME280;11809;56.390;-3.266;2022-11-20T06:58:38;99736.91;;;13.86;64.62
23281;BME280;11809;56.390;-3.266;2022-11-20T07:01:15;99727.28;;;13.85;64.48
23281;BME280;11809;56.390;-3.266;2022-11-20T07:03:42;99730.78;;;13.85;64.75
23281;BME280;11809;56.390;-3.266;2022-11-20T07:06:10;99741.34;;;13.85;64.46
23281;BME280;11809;56.390;-3.266;2022-11-20T07:08:37;99741.34;;;13.85;64.62
23281;BME280;11809;56.390;-3.266;2022-11-20T07:11:06;99732.47;;;13.86;64.53
23281;BME280;11809;56.390;-3.266;2022-11-20T07:13:33;99718.53;;;13.97;64.81
23281;BME280;11809;56.390;-3.266;2022-11-20T07:16:02;99732.16;;;14.04;64.64
23281;BME280;11809;56.390;-3.266;2022-11-20T07:18:29;99734.59;;;14.07;64.62
23281;BME280;11809;56.390;-3.266;2022-11-20T07:21:03;99733.84;;;14.05;64.78
23281;BME280;11809;56.390;-3.266;2022-11-20T07:23:30;99728.03;;;14.00;65.35
23281;BME280;11809;56.390;-3.266;2022-11-20T07:25:57;99726.47;;;13.97;65.32
23281;BME280;11809;56.390;-3.266;2022-11-20T07:28:25;99721.47;;;13.92;65.36
23281;BME280;11809;56.390;-3.266;2022-11-20T07:30:53;99729.19;;;13.95;65.21
23281;BME280;11809;56.390;-3.266;2022-11-20T07:33:20;99719.88;;;13.90;64.38
23281;BME280;11809;56.390;-3.266;2022-11-20T07:35:47;99719.03;;;13.89;64.95
23281;BME280;11809;56.390;-3.266;2022-11-20T07:38:14;99726.88;;;13.91;65.31
23281;BME280;11809;56.390;-3.266;2022-11-20T07:40:41;99725.16;;;13.90;65.31
23281;BME280;11809;56.390;-3.266;2022-11-20T07:43:08;99721.91;;;13.86;65.10
23281;BME280;11809;56.390;-3.266;2022-11-20T07:45:35;99712.81;;;13.90;65.19
23281;BME280;11809;56.390;-3.266;2022-11-20T07:48:02;99721.59;;;13.91;65.04
23281;BME280;11809;56.390;-3.266;2022-11-20T07:50:29;99717.44;;;13.87;65.21
23281;BME280;11809;56.390;-3.266;2022-11-20T07:53:05;99710.38;;;13.87;65.20
23281;BME280;11809;56.390;-3.266;2022-11-20T07:55:32;99717.25;;;13.90;65.29
23281;BME280;11809;56.390;-3.266;2022-11-20T07:57:59;99727.50;;;13.94;65.61
23281;BME280;11809;56.390;-3.266;2022-11-20T08:00:27;99726.75;;;13.92;65.24
23281;BME280;11809;56.390;-3.266;2022-11-20T08:02:54;99737.31;;;13.92;65.10
23281;BME280;11809;56.390;-3.266;2022-11-20T08:05:21;99724.31;;;13.89;65.02
23281;BME280;11809;56.390;-3.266;2022-11-20T08:07:48;99745.38;;;13.91;65.08
23281;BME280;11809;56.390;-3.266;2022-11-20T08:10:15;99734.72;;;13.53;62.96
23281;BME280;11809;56.390;-3.266;2022-11-20T08:12:47;99737.31;;;13.67;65.11
23281;BME280;11809;56.390;-3.266;2022-11-20T08:15:34;99743.44;;;13.80;65.25
23281;BME280;11809;56.390;-3.266;2022-11-20T08:18:05;99742.94;;;13.88;65.56
23281;BME280;11809;56.390;-3.266;2022-11-20T08:20:52;99739.22;;;13.90;64.91
23281;BME280;11809;56.390;-3.266;2022-11-20T08:23:19;99724.13;;;13.92;65.12
23281;BME280;11809;56.390;-3.266;2022-11-20T08:25:49;99735.84;;;14.01;65.44
23281;BME280;11809;56.390;-3.266;2022-11-20T08:28:16;99726.75;;;13.92;65.21
23281;BME280;11809;56.390;-3.266;2022-11-20T08:30:48;99737.75;;;13.99;65.31
23281;BME280;11809;56.390;-3.266;2022-11-20T08:33:15;99738.38;;;14.03;65.49
23281;BME280;11809;56.390;-3.266;2022-11-20T08:35:44;99737.44;;;14.04;65.84
23281;BME280;11809;56.390;-3.266;2022-11-20T08:38:11;99734.59;;;14.07;65.76
23281;BME280;11809;56.390;-3.266;2022-11-20T08:40:38;99732.69;;;14.09;65.91
23281;BME280;11809;56.390;-3.266;2022-11-20T08:43:05;99725.72;;;14.08;65.62
23281;BME280;11809;56.390;-3.266;2022-11-20T08:45:31;99734.78;;;14.16;65.38
23281;BME280;11809;56.390;-3.266;2022-11-20T08:48:03;99734.69;;;14.18;65.50
23281;BME280;11809;56.390;-3.266;2022-11-20T08:50:31;99731.84;;;14.21;65.58
23281;BME280;11809;56.390;-3.266;2022-11-20T08:53:03;99730.16;;;14.20;65.42
23281;BME280;11809;56.390;-3.266;2022-11-20T08:55:34;99732.38;;;14.26;65.35
23281;BME280;11809;56.390;-3.266;2022-11-20T08:58:04;99727.09;;;14.26;65.32
23281;BME280;11809;56.390;-3.266;2022-11-20T09:00:32;99732.72;;;14.34;65.41
23281;BME280;11809;56.390;-3.266;2022-11-20T09:02:59;99732.59;;;14.35;65.01
23281;BME280;11809;56.390;-3.266;2022-11-20T09:05:28;99721.28;;;14.33;65.12
23281;BME280;11809;56.390;-3.266;2022-11-20T09:07:56;99727.75;;;14.42;65.25
23281;BME280;11809;56.390;-3.266;2022-11-20T09:10:24;99731.09;;;14.44;65.34
23281;BME280;11809;56.390;-3.266;2022-11-20T09:12:52;99726.03;;;14.41;65.41
23281;BME280;11809;56.390;-3.266;2022-11-20T09:15:19;99735.97;;;14.50;65.54
23281;BME280;11809;56.390;-3.266;2022-11-20T09:20:21;99734.38;;;14.60;65.38
23281;BME280;11809;56.390;-3.266;2022-11-20T09:22:48;99731.72;;;14.60;65.09
23281;BME280;11809;56.390;-3.266;2022-11-20T09:25:16;99728.84;;;14.63;65.36
23281;BME280;11809;56.390;-3.266;2022-11-20T09:27:43;99736.34;;;14.69;65.08
23281;BME280;11809;56.390;-3.266;2022-11-20T09:30:14;99736.88;;;14.74;64.80
23281;BME280;11809;56.390;-3.266;2022-11-20T09:32:42;99746.47;;;14.75;64.51
23281;BME280;11809;56.390;-3.266;2022-11-20T09:35:09;99742.56;;;14.81;64.30
23281;BME280;11809;56.390;-3.266;2022-11-20T09:37:37;99734.53;;;14.82;64.40
23281;BME280;11809;56.390;-3.266;2022-11-20T09:40:05;99734.28;;;14.85;64.19
23281;BME280;11809;56.390;-3.266;2022-11-20T09:42:42;99744.34;;;14.93;64.51
23281;BME280;11809;56.390;-3.266;2022-11-20T09:46:04;99741.63;;;14.69;60.52
23281;BME280;11809;56.390;-3.266;2022-11-20T09:50:46;99738.13;;;14.81;63.19
23281;BME280;11809;56.390;-3.266;2022-11-20T09:56:03;99721.03;;;14.24;59.71
23281;BME280;11809;56.390;-3.266;2022-11-20T10:01:09;99728.41;;;14.69;62.33
23281;BME280;11809;56.390;-3.266;2022-11-20T10:06:13;99728.78;;;14.88;63.13
23281;BME280;11809;56.390;-3.266;2022-11-20T10:08:48;99718.19;;;14.88;63.24
23281;BME280;11809;56.390;-3.266;2022-11-20T10:11:33;99723.69;;;14.98;63.23
23281;BME280;11809;56.390;-3.266;2022-11-20T10:14:25;99722.81;;;14.97;62.85
23281;BME280;11809;56.390;-3.266;2022-11-20T10:25:25;99734.78;;;15.27;62.22
23281;BME280;11809;56.390;-3.266;2022-11-20T10:30:57;99736.22;;;15.31;62.42
23281;BME280;11809;56.390;-3.266;2022-11-20T10:33:31;99729.13;;;15.07;60.67
23281;BME280;11809;56.390;-3.266;2022-11-20T10:36:28;99735.94;;;14.99;60.63
23281;BME280;11809;56.390;-3.266;2022-11-20T10:39:01;99727.00;;;15.12;61.14
23281;BME280;11809;56.390;-3.266;2022-11-20T10:41:41;99735.94;;;15.23;61.43
23281;BME280;11809;56.390;-3.266;2022-11-20T10:44:15;99734.78;;;15.27;61.64
23281;BME280;11809;56.390;-3.266;2022-11-20T10:47:04;99732.28;;;15.36;61.73
23281;BME280;11809;56.390;-3.266;2022-11-20T10:49:33;99741.06;;;15.37;61.72
23281;BME280;11809;56.390;-3.266;2022-11-20T10:58:04;99737.28;;;15.28;61.77
23281;BME280;11809;56.390;-3.266;2022-11-20T11:00:34;99733.78;;;15.28;61.87
23281;BME280;11809;56.390;-3.266;2022-11-20T11:03:02;99733.91;;;15.26;62.03
23281;BME280;11809;56.390;-3.266;2022-11-20T11:05:36;99722.69;;;15.23;61.69
23281;BME280;11809;56.390;-3.266;2022-11-20T11:08:12;99721.63;;;15.25;61.82
23281;BME280;11809;56.390;-3.266;2022-11-20T11:13:24;99722.81;;;15.21;62.04
23281;BME280;11809;56.390;-3.266;2022-11-20T11:15:52;99728.22;;;15.19;61.81
23281;BME280;11809;56.390;-3.266;2022-11-20T11:18:31;99714.97;;;15.19;62.02
23281;BME280;11809;56.390;-3.266;2022-11-20T11:21:02;99716.91;;;15.17;61.99
23281;BME280;11809;56.390;-3.266;2022-11-20T11:23:38;99717.03;;;15.16;62.09
23281;BME280;11809;56.390;-3.266;2022-11-20T11:26:17;99711.84;;;15.14;61.78
23281;BME280;11809;56.390;-3.266;2022-11-20T11:31:27;99719.28;;;15.09;62.05
23281;BME280;11809;56.390;-3.266;2022-11-20T11:34:12;99714.09;;;15.08;62.18
23281;BME280;11809;56.390;-3.266;2022-11-20T11:36:41;99710.59;;;15.07;62.35
23281;BME280;11809;56.390;-3.266;2022-11-20T11:39:14;99719.00;;;15.01;62.11
23281;BME280;11809;56.390;-3.266;2022-11-20T11:41:42;99720.56;;;15.04;62.11
23281;BME280;11809;56.390;-3.266;2022-11-20T11:44:19;99725.13;;;15.02;62.15
23281;BME280;11809;56.390;-3.266;2022-11-20T11:47:11;99726.94;;;15.01;62.12
23281;BME280;11809;56.390;-3.266;2022-11-20T11:49:38;99725.25;;;15.00;62.17
23281;BME280;11809;56.390;-3.266;2022-11-20T11:52:12;99728.72;;;15.01;62.06
23281;BME280;11809;56.390;-3.266;2022-11-20T11:54:53;99720.06;;;14.99;61.96
23281;BME280;11809;56.390;-3.266;2022-11-20T12:00:15;99713.63;;;14.90;62.07
23281;BME280;11809;56.390;-3.266;2022-11-20T12:05:22;99712.78;;;14.66;60.07
23281;BME280;11809;56.390;-3.266;2022-11-20T12:07:57;99715.47;;;14.77;61.26
23281;BME280;11809;56.390;-3.266;2022-11-20T12:11:24;99721.41;;;14.81;61.63
23281;BME280;11809;56.390;-3.266;2022-11-20T12:16:14;99721.25;;;14.95;61.82
23281;BME280;11809;56.390;-3.266;2022-11-20T12:18:42;99715.84;;;14.96;61.75
23281;BME280;11809;56.390;-3.266;2022-11-20T12:21:35;99709.94;;;14.93;61.68
23281;BME280;11809;56.390;-3.266;2022-11-20T12:27:43;99728.13;;;14.97;62.40
23281;BME280;11809;56.390;-3.266;2022-11-20T12:30:16;99722.09;;;14.95;62.00
23281;BME280;11809;56.390;-3.266;2022-11-20T12:36:02;99734.13;;;14.99;62.26
23281;BME280;11809;56.390;-3.266;2022-11-20T12:50:12;99744.72;;;15.23;nan
23281;BME280;11809;56.390;-3.266;2022-11-20T12:52:53;99744.91;;;15.33;62.14
23281;BME280;11809;56.390;-3.266;2022-11-20T12:58:16;99741.25;;;15.46;62.28
23281;BME280;11809;56.390;-3.266;2022-11-20T13:01:00;99744.31;;;15.53;62.11
23281;BME280;11809;56.390;-3.266;2022-11-20T13:06:14;99740.13;;;15.61;61.57
23281;BME280;11809;56.390;-3.266;2022-11-20T13:08:52;99744.94;;;15.67;61.67
23281;BME280;11809;56.390;-3.266;2022-11-20T13:11:42;99739.19;;;15.73;61.48
23281;BME280;11809;56.390;-3.266;2022-11-20T13:19:54;99740.34;;;15.93;60.86
23281;BME280;11809;56.390;-3.266;2022-11-20T13:22:29;99747.81;;;15.99;60.97
23281;BME280;11809;56.390;-3.266;2022-11-20T13:24:57;99753.59;;;16.04;60.79
23281;BME280;11809;56.390;-3.266;2022-11-20T13:27:24;99742.03;;;16.05;60.42
23281;BME280;11809;56.390;-3.266;2022-11-20T13:30:18;99763.25;;;16.16;60.64
23281;BME280;11809;56.390;-3.266;2022-11-20T13:35:54;99761.81;;;16.23;60.36
23281;BME280;11809;56.390;-3.266;2022-11-20T13:38:21;99748.56;;;16.23;60.00
23281;BME280;11809;56.390;-3.266;2022-11-20T13:43:37;99748.81;;;16.31;60.35
23281;BME280;11809;56.390;-3.266;2022-11-20T13:46:08;99745.91;;;16.34;60.17
23281;BME280;11809;56.390;-3.266;2022-11-20T13:51:50;99763.75;;;16.32;60.69
23281;BME280;11809;56.390;-3.266;2022-11-20T14:02:21;99757.13;;;16.38;60.34
23281;BME280;11809;56.390;-3.266;2022-11-20T14:04:53;99758.47;;;16.44;60.27
23281;BME280;11809;56.390;-3.266;2022-11-20T14:07:23;99753.03;;;16.45;60.28
23281;BME280;11809;56.390;-3.266;2022-11-20T14:09:53;99768.72;;;16.26;57.69
23281;BME280;11809;56.390;-3.266;2022-11-20T14:12:27;99757.66;;;15.97;56.22
23281;BME280;11809;56.390;-3.266;2022-11-20T14:14:55;99759.03;;;16.14;57.94
23281;BME280;11809;56.390;-3.266;2022-11-20T14:19:59;99765.47;;;16.56;58.30
23281;BME280;11809;56.390;-3.266;2022-11-20T14:22:28;99768.03;;;16.68;58.39
23281;BME280;11809;56.390;-3.266;2022-11-20T14:27:51;99759.69;;;16.84;58.48
23281;BME280;11809;56.390;-3.266;2022-11-20T14:30:22;99762.59;;;16.92;58.45
23281;BME280;11809;56.390;-3.266;2022-11-20T14:32:50;99758.69;;;16.96;58.57
23281;BME280;11809;56.390;-3.266;2022-11-20T14:35:30;99763.53;;;17.02;58.49
23281;BME280;11809;56.390;-3.266;2022-11-20T14:37:58;99755.19;;;17.07;58.38
23281;BME280;11809;56.390;-3.266;2022-11-20T14:40:33;99758.44;;;17.10;58.47
23281;BME280;11809;56.390;-3.266;2022-11-20T14:45:52;99759.63;;;17.17;58.47
23281;BME280;11809;56.390;-3.266;2022-11-20T14:48:49;99749.13;;;17.16;58.46
23281;BME280;11809;56.390;-3.266;2022-11-20T14:51:34;99751.16;;;17.23;58.39
23281;BME280;11809;56.390;-3.266;2022-11-20T14:54:15;99753.56;;;17.26;58.50